sensor_id;sensor_type;location;lat;lon;timestamp;pressure;altitude;pressure_sealevel;temperature;humidity
74778;BME280;63298;53.164;8.610;2023-11-18T00:01:07;102574.06;;;3.95;78.41
74778;BME280;63298;53.164;8.610;2023-11-18T00:03:33;102580.72;;;3.92;78.47
74778;BME280;63298;53.164;8.610;2023-11-18T00:05:58;102583.75;;;3.89;78.19
74778;BME280;63298;53.164;8.610;2023-11-18T00:08:24;102588.19;;;3.90;78.39
74778;BME280;63298;53.164;8.610;2023-11-18T00:10:49;102593.63;;;3.90;78.16
74778;BME280;63298;53.164;8.610;2023-11-18T00:13:14;102598.81;;;3.94;78.38
74778;BME280;63298;53.164;8.610;2023-11-18T00:15:40;102586.22;;;3.83;78.22
74778;BME280;63298;53.164;8.610;2023-11-18T00:18:05;102597.59;;;3.78;78.53
74778;BME280;63298;53.164;8.610;2023-11-18T00:20:31;102616.25;;;3.83;78.08
74778;BME280;63298;53.164;8.610;2023-11-18T00:22:56;102608.50;;;3.78;78.25
74778;BME280;63298;53.164;8.610;2023-11-18T00:25:22;102598.31;;;3.71;77.84
74778;BME280;63298;53.164;8.610;2023-11-18T00:27:47;102619.56;;;3.77;78.13
74778;BME280;63298;53.164;8.610;2023-11-18T00:30:13;102605.94;;;3.67;78.27
74778;BME280;63298;53.164;8.610;2023-11-18T00:32:39;102622.28;;;3.77;78.12
74778;BME280;63298;53.164;8.610;2023-11-18T00:35:05;102625.03;;;3.77;78.33
74778;BME280;63298;53.164;8.610;2023-11-18T00:37:31;102612.13;;;3.69;77.95
74778;BME280;63298;53.164;8.610;2023-11-18T00:39:56;102600.38;;;3.59;78.08
74778;BME280;63298;53.164;8.610;2023-11-18T00:42:22;102621.59;;;3.75;78.32
74778;BME280;63298;53.164;8.610;2023-11-18T00:44:47;102595.22;;;3.56;77.83
74778;BME280;63298;53.164;8.610;2023-11-18T00:47:13;102607.97;;;3.56;78.35
74778;BME280;63298;53.164;8.610;2023-11-18T00:49:38;102619.47;;;3.59;78.58
74778;BME280;63298;53.164;8.610;2023-11-18T00:52:04;102613.44;;;3.56;78.42
74778;BME280;63298;53.164;8.610;2023-11-18T00:54:29;102611.56;;;3.56;78.57
74778;BME280;63298;53.164;8.610;2023-11-18T00:56:55;102624.50;;;3.64;78.42
74778;BME280;63298;53.164;8.610;2023-11-18T00:59:20;102611.44;;;3.58;78.58
74778;BME280;63298;53.164;8.610;2023-11-18T01:01:45;102623.91;;;3.70;78.09
74778;BME280;63298;53.164;8.610;2023-11-18T01:04:11;102640.25;;;3.79;78.25
74778;BME280;63298;53.164;8.610;2023-11-18T01:06:36;102634.06;;;3.77;78.05
74778;BME280;63298;53.164;8.610;2023-11-18T01:12:30;102626.59;;;3.79;78.42
74778;BME280;63298;53.164;8.610;2023-11-18T01:14:55;102631.75;;;3.82;77.90
74778;BME280;63298;53.164;8.610;2023-11-18T01:17:21;102628.31;;;3.80;78.33
74778;BME280;63298;53.164;8.610;2023-11-18T01:19:46;102635.91;;;3.86;78.03
74778;BME280;63298;53.164;8.610;2023-11-18T01:22:11;102637.91;;;3.94;78.26
74778;BME280;63298;53.164;8.610;2023-11-18T01:24:37;102642.91;;;3.99;78.01
74778;BME280;63298;53.164;8.610;2023-11-18T01:27:02;102636.59;;;3.98;78.36
74778;BME280;63298;53.164;8.610;2023-11-18T01:29:28;102661.22;;;4.16;77.88
74778;BME280;63298;53.164;8.610;2023-11-18T01:31:53;102655.66;;;4.08;77.95
74778;BME280;63298;53.164;8.610;2023-11-18T01:34:22;102645.28;;;4.11;77.78
74778;BME280;63298;53.164;8.610;2023-11-18T01:36:48;102635.09;;;4.13;77.97
74778;BME280;63298;53.164;8.610;2023-11-18T01:39:13;102638.38;;;4.17;78.10
74778;BME280;63298;53.164;8.610;2023-11-18T01:41:39;102661.91;;;4.27;78.00
74778;BME280;63298;53.164;8.610;2023-11-18T01:44:04;102653.16;;;4.24;78.65
74778;BME280;63298;53.164;8.610;2023-11-18T01:46:30;102638.06;;;4.20;78.49
74778;BME280;63298;53.164;8.610;2023-11-18T01:48:56;102633.44;;;4.20;78.07
74778;BME280;63298;53.164;8.610;2023-11-18T01:51:22;102640.91;;;4.28;78.56
74778;BME280;63298;53.164;8.610;2023-11-18T01:53:51;102649.78;;;4.30;78.36
74778;BME280;63298;53.164;8.610;2023-11-18T01:56:16;102650.38;;;4.33;78.46
74778;BME280;63298;53.164;8.610;2023-11-18T01:58:42;102650.38;;;4.33;78.90
74778;BME280;63298;53.164;8.610;2023-11-18T02:01:07;102663.81;;;4.45;78.27
74778;BME280;63298;53.164;8.610;2023-11-18T02:03:34;102642.63;;;4.29;78.38
74778;BME280;63298;53.164;8.610;2023-11-18T02:05:59;102650.78;;;4.39;78.58
74778;BME280;63298;53.164;8.610;2023-11-18T02:08:25;102648.19;;;4.37;78.13
74778;BME280;63298;53.164;8.610;2023-11-18T02:11:19;102629.13;;;4.27;78.76
74778;BME280;63298;53.164;8.610;2023-11-18T02:13:48;102631.38;;;4.32;78.73
74778;BME280;63298;53.164;8.610;2023-11-18T02:16:16;102624.50;;;4.28;79.19
74778;BME280;63298;53.164;8.610;2023-11-18T02:18:43;102643.81;;;4.44;78.71
74778;BME280;63298;53.164;8.610;2023-11-18T02:21:10;102629.06;;;4.37;78.88
74778;BME280;63298;53.164;8.610;2023-11-18T02:23:37;102640.78;;;4.47;78.07
74778;BME280;63298;53.164;8.610;2023-11-18T02:26:03;102636.19;;;4.48;78.81
74778;BME280;63298;53.164;8.610;2023-11-18T02:28:28;102620.41;;;4.42;78.80
74778;BME280;63298;53.164;8.610;2023-11-18T02:30:57;102622.69;;;4.46;78.72
74778;BME280;63298;53.164;8.610;2023-11-18T02:33:35;102610.47;;;4.41;78.87
74778;BME280;63298;53.164;8.610;2023-11-18T02:36:16;102605.16;;;4.39;78.96
74778;BME280;63298;53.164;8.610;2023-11-18T02:38:50;102623.53;;;4.47;78.60
74778;BME280;63298;53.164;8.610;2023-11-18T02:41:16;102624.41;;;4.47;79.01
74778;BME280;63298;53.164;8.610;2023-11-18T02:43:42;102596.28;;;4.37;78.40
74778;BME280;63298;53.164;8.610;2023-11-18T02:46:08;102616.50;;;4.44;79.21
74778;BME280;63298;53.164;8.610;2023-11-18T02:48:34;102609.47;;;4.42;79.19
74778;BME280;63298;53.164;8.610;2023-11-18T02:51:01;102600.09;;;4.44;79.52
74778;BME280;63298;53.164;8.610;2023-11-18T02:53:26;102617.00;;;4.57;78.79
74778;BME280;63298;53.164;8.610;2023-11-18T02:55:54;102603.09;;;4.51;79.54
74778;BME280;63298;53.164;8.610;2023-11-18T02:58:20;102593.63;;;4.45;79.54
74778;BME280;63298;53.164;8.610;2023-11-18T03:00:46;102608.09;;;4.55;79.18
74778;BME280;63298;53.164;8.610;2023-11-18T03:03:11;102614.28;;;4.57;79.99
74778;BME280;63298;53.164;8.610;2023-11-18T03:05:37;102619.47;;;4.51;79.66
74778;BME280;63298;53.164;8.610;2023-11-18T03:08:03;102620.41;;;4.59;79.18
74778;BME280;63298;53.164;8.610;2023-11-18T03:10:28;102596.75;;;4.50;79.41
74778;BME280;63298;53.164;8.610;2023-11-18T03:12:53;102603.94;;;4.51;79.47
74778;BME280;63298;53.164;8.610;2023-11-18T03:15:20;102618.56;;;4.60;79.55
74778;BME280;63298;53.164;8.610;2023-11-18T03:17:46;102594.13;;;4.58;78.85
74778;BME280;63298;53.164;8.610;2023-11-18T03:20:12;102596.75;;;4.50;79.14
74778;BME280;63298;53.164;8.610;2023-11-18T03:22:37;102613.56;;;4.55;79.62
74778;BME280;63298;53.164;8.610;2023-11-18T03:25:03;102621.84;;;4.63;79.73
74778;BME280;63298;53.164;8.610;2023-11-18T03:27:29;102603.63;;;4.54;79.10
74778;BME280;63298;53.164;8.610;2023-11-18T03:29:54;102623.56;;;4.64;79.08
74778;BME280;63298;53.164;8.610;2023-11-18T03:32:19;102609.97;;;4.55;79.81
74778;BME280;63298;53.164;8.610;2023-11-18T03:34:45;102594.63;;;4.44;79.75
74778;BME280;63298;53.164;8.610;2023-11-18T03:37:10;102594.56;;;4.36;79.40
74778;BME280;63298;53.164;8.610;2023-11-18T03:39:35;102619.94;;;4.46;79.86
74778;BME280;63298;53.164;8.610;2023-11-18T03:42:01;102607.22;;;4.37;79.75
74778;BME280;63298;53.164;8.610;2023-11-18T03:44:26;102610.94;;;4.36;79.71
74778;BME280;63298;53.164;8.610;2023-11-18T03:46:52;102607.34;;;4.35;79.74
74778;BME280;63298;53.164;8.610;2023-11-18T03:49:17;102627.22;;;4.55;80.00
74778;BME280;63298;53.164;8.610;2023-11-18T03:51:42;102606.44;;;4.45;79.84
74778;BME280;63298;53.164;8.610;2023-11-18T03:54:08;102627.31;;;4.63;79.32
74778;BME280;63298;53.164;8.610;2023-11-18T03:56:33;102617.69;;;4.59;79.74
74778;BME280;63298;53.164;8.610;2023-11-18T03:58:59;102609.81;;;4.56;79.14
74778;BME280;63298;53.164;8.610;2023-11-18T04:01:26;102615.69;;;4.61;79.72
74778;BME280;63298;53.164;8.610;2023-11-18T04:03:51;102627.72;;;4.68;79.84
74778;BME280;63298;53.164;8.610;2023-11-18T04:06:16;102608.72;;;4.67;78.99
74778;BME280;63298;53.164;8.610;2023-11-18T04:08:48;102627.06;;;4.74;79.06
74778;BME280;63298;53.164;8.610;2023-11-18T04:11:14;102617.19;;;4.73;79.01
74778;BME280;63298;53.164;8.610;2023-11-18T04:13:40;102592.63;;;4.64;79.37
74778;BME280;63298;53.164;8.610;2023-11-18T04:16:06;102616.00;;;4.76;79.67
74778;BME280;63298;53.164;8.610;2023-11-18T04:18:31;102603.50;;;4.73;79.57
74778;BME280;63298;53.164;8.610;2023-11-18T04:20:59;102613.50;;;4.83;79.03
74778;BME280;63298;53.164;8.610;2023-11-18T04:23:24;102606.59;;;4.78;79.59
74778;BME280;63298;53.164;8.610;2023-11-18T04:25:50;102611.78;;;4.82;79.92
74778;BME280;63298;53.164;8.610;2023-11-18T04:28:15;102591.88;;;4.71;79.22
74778;BME280;63298;53.164;8.610;2023-11-18T04:30:40;102583.41;;;4.65;79.76
74778;BME280;63298;53.164;8.610;2023-11-18T04:33:06;102604.75;;;4.79;79.72
74778;BME280;63298;53.164;8.610;2023-11-18T04:35:31;102585.69;;;4.69;79.84
74778;BME280;63298;53.164;8.610;2023-11-18T04:37:57;102583.59;;;4.63;79.72
74778;BME280;63298;53.164;8.610;2023-11-18T04:40:22;102590.47;;;4.67;79.90
74778;BME280;63298;53.164;8.610;2023-11-18T04:42:47;102575.00;;;4.58;80.40
74778;BME280;63298;53.164;8.610;2023-11-18T04:45:13;102578.81;;;4.65;80.18
74778;BME280;63298;53.164;8.610;2023-11-18T04:47:38;102574.75;;;4.69;80.16
74778;BME280;63298;53.164;8.610;2023-11-18T04:50:04;102577.19;;;4.72;79.96
74778;BME280;63298;53.164;8.610;2023-11-18T04:52:29;102560.69;;;4.64;80.26
74778;BME280;63298;53.164;8.610;2023-11-18T04:54:55;102557.97;;;4.64;79.63
74778;BME280;63298;53.164;8.610;2023-11-18T04:57:20;102572.13;;;4.77;80.20
74778;BME280;63298;53.164;8.610;2023-11-18T04:59:45;102556.00;;;4.74;80.37
74778;BME280;63298;53.164;8.610;2023-11-18T05:02:11;102563.91;;;4.77;80.08
74778;BME280;63298;53.164;8.610;2023-11-18T05:04:36;102556.19;;;4.73;80.13
74778;BME280;63298;53.164;8.610;2023-11-18T05:07:01;102560.47;;;4.75;80.54
74778;BME280;63298;53.164;8.610;2023-11-18T05:09:27;102549.78;;;4.82;80.31
74778;BME280;63298;53.164;8.610;2023-11-18T05:11:52;102532.44;;;4.73;80.83
74778;BME280;63298;53.164;8.610;2023-11-18T05:14:18;102534.00;;;4.76;80.09
74778;BME280;63298;53.164;8.610;2023-11-18T05:16:43;102542.91;;;4.78;79.92
74778;BME280;63298;53.164;8.610;2023-11-18T05:19:09;102539.84;;;4.81;80.58
74778;BME280;63298;53.164;8.610;2023-11-18T05:21:34;102535.38;;;4.80;80.52
74778;BME280;63298;53.164;8.610;2023-11-18T05:24:00;102540.38;;;4.85;80.61
74778;BME280;63298;53.164;8.610;2023-11-18T05:26:25;102534.03;;;4.84;80.16
74778;BME280;63298;53.164;8.610;2023-11-18T05:28:50;102515.00;;;4.74;80.29
74778;BME280;63298;53.164;8.610;2023-11-18T05:31:16;102535.78;;;4.85;80.52
74778;BME280;63298;53.164;8.610;2023-11-18T05:33:41;102540.09;;;4.88;80.26
74778;BME280;63298;53.164;8.610;2023-11-18T05:36:07;102533.56;;;4.89;80.87
74778;BME280;63298;53.164;8.610;2023-11-18T05:38:32;102515.94;;;4.83;80.56
74778;BME280;63298;53.164;8.610;2023-11-18T05:40:58;102515.63;;;4.86;80.09
74778;BME280;63298;53.164;8.610;2023-11-18T05:43:30;102542.41;;;5.00;80.26
74778;BME280;63298;53.164;8.610;2023-11-18T05:45:56;102524.75;;;4.95;80.33
74778;BME280;63298;53.164;8.610;2023-11-18T05:48:22;102517.56;;;4.94;80.27
74778;BME280;63298;53.164;8.610;2023-11-18T05:50:47;102542.44;;;5.08;80.70
74778;BME280;63298;53.164;8.610;2023-11-18T05:53:12;102520.13;;;4.95;80.64
74778;BME280;63298;53.164;8.610;2023-11-18T05:55:38;102523.88;;;4.94;80.50
74778;BME280;63298;53.164;8.610;2023-11-18T05:58:03;102525.06;;;4.92;81.25
74778;BME280;63298;53.164;8.610;2023-11-18T06:00:28;102533.28;;;4.92;80.74
74778;BME280;63298;53.164;8.610;2023-11-18T06:02:54;102528.03;;;4.81;80.80
74778;BME280;63298;53.164;8.610;2023-11-18T06:05:19;102533.03;;;4.85;80.54
74778;BME280;63298;53.164;8.610;2023-11-18T06:07:45;102528.03;;;4.81;81.04
74778;BME280;63298;53.164;8.610;2023-11-18T06:10:10;102545.38;;;4.89;81.42
74778;BME280;63298;53.164;8.610;2023-11-18T06:12:36;102540.72;;;4.82;80.84
74778;BME280;63298;53.164;8.610;2023-11-18T06:15:03;102543.91;;;4.77;81.20
74778;BME280;63298;53.164;8.610;2023-11-18T06:17:29;102531.00;;;4.69;80.84
74778;BME280;63298;53.164;8.610;2023-11-18T06:19:54;102540.66;;;4.73;81.28
74778;BME280;63298;53.164;8.610;2023-11-18T06:22:19;102540.16;;;4.78;81.10
74778;BME280;63298;53.164;8.610;2023-11-18T06:24:45;102531.72;;;4.71;81.40
74778;BME280;63298;53.164;8.610;2023-11-18T06:27:10;102529.31;;;4.68;81.83
74778;BME280;63298;53.164;8.610;2023-11-18T06:29:36;102529.31;;;4.68;81.76
74778;BME280;63298;53.164;8.610;2023-11-18T06:32:01;102539.31;;;4.77;81.32
74778;BME280;63298;53.164;8.610;2023-11-18T06:34:30;102531.19;;;4.68;81.33
74778;BME280;63298;53.164;8.610;2023-11-18T06:36:55;102544.06;;;4.75;81.52
74778;BME280;63298;53.164;8.610;2023-11-18T06:39:20;102539.06;;;4.71;81.48
74778;BME280;63298;53.164;8.610;2023-11-18T06:41:46;102566.56;;;4.87;81.22
74778;BME280;63298;53.164;8.610;2023-11-18T06:44:11;102548.91;;;4.82;81.68
74778;BME280;63298;53.164;8.610;2023-11-18T06:46:37;102541.19;;;4.77;81.92
74778;BME280;63298;53.164;8.610;2023-11-18T06:49:03;102552.50;;;4.82;81.26
74778;BME280;63298;53.164;8.610;2023-11-18T06:51:28;102544.31;;;4.82;81.88
74778;BME280;63298;53.164;8.610;2023-11-18T06:53:54;102546.16;;;4.82;81.67
74778;BME280;63298;53.164;8.610;2023-11-18T06:56:20;102562.34;;;4.93;82.08
74778;BME280;63298;53.164;8.610;2023-11-18T06:58:48;102549.16;;;4.88;81.85
74778;BME280;63298;53.164;8.610;2023-11-18T07:01:14;102552.56;;;4.90;81.95
74778;BME280;63298;53.164;8.610;2023-11-18T07:03:39;102567.00;;;5.00;82.20
74778;BME280;63298;53.164;8.610;2023-11-18T07:06:05;102558.09;;;4.98;81.74
74778;BME280;63298;53.164;8.610;2023-11-18T07:08:30;102535.28;;;4.90;81.69
74778;BME280;63298;53.164;8.610;2023-11-18T07:10:55;102540.28;;;4.94;81.84
74778;BME280;63298;53.164;8.610;2023-11-18T07:13:21;102548.00;;;4.99;81.56
74778;BME280;63298;53.164;8.610;2023-11-18T07:15:46;102551.78;;;4.98;81.44
74778;BME280;63298;53.164;8.610;2023-11-18T07:18:12;102576.13;;;5.09;81.88
74778;BME280;63298;53.164;8.610;2023-11-18T07:20:40;102577.84;;;5.10;82.18
74778;BME280;63298;53.164;8.610;2023-11-18T07:23:05;102567.25;;;5.07;81.34
74778;BME280;63298;53.164;8.610;2023-11-18T07:25:31;102581.97;;;5.14;82.01
74778;BME280;63298;53.164;8.610;2023-11-18T07:27:56;102570.66;;;5.09;81.77
74778;BME280;63298;53.164;8.610;2023-11-18T07:30:21;102563.31;;;5.09;81.47
74778;BME280;63298;53.164;8.610;2023-11-18T07:32:47;102553.56;;;5.07;81.91
74778;BME280;63298;53.164;8.610;2023-11-18T07:35:12;102559.72;;;5.09;81.97
74778;BME280;63298;53.164;8.610;2023-11-18T07:37:41;102554.44;;;5.07;82.16
74778;BME280;63298;53.164;8.610;2023-11-18T07:40:07;102559.94;;;5.15;82.05
74778;BME280;63298;53.164;8.610;2023-11-18T07:42:32;102541.63;;;5.08;82.48
74778;BME280;63298;53.164;8.610;2023-11-18T07:44:58;102546.91;;;5.09;81.84
74778;BME280;63298;53.164;8.610;2023-11-18T07:47:23;102552.06;;;5.12;82.42
74778;BME280;63298;53.164;8.610;2023-11-18T07:49:49;102529.97;;;5.06;82.63
74778;BME280;63298;53.164;8.610;2023-11-18T07:52:14;102530.97;;;5.05;82.08
74778;BME280;63298;53.164;8.610;2023-11-18T07:54:39;102537.22;;;5.15;81.98
74778;BME280;63298;53.164;8.610;2023-11-18T07:57:05;102519.50;;;5.01;82.53
74778;BME280;63298;53.164;8.610;2023-11-18T07:59:30;102536.53;;;5.13;82.31
74778;BME280;63298;53.164;8.610;2023-11-18T08:01:55;102523.97;;;5.02;82.40
74778;BME280;63298;53.164;8.610;2023-11-18T08:04:24;102533.94;;;5.11;82.19
74778;BME280;63298;53.164;8.610;2023-11-18T08:06:54;102532.94;;;5.12;82.35
74778;BME280;63298;53.164;8.610;2023-11-18T08:09:19;102529.63;;;5.09;82.58
74778;BME280;63298;53.164;8.610;2023-11-18T08:11:45;102535.47;;;5.14;82.95
74778;BME280;63298;53.164;8.610;2023-11-18T08:14:10;102529.34;;;5.12;82.90
74778;BME280;63298;53.164;8.610;2023-11-18T08:16:35;102538.06;;;5.15;83.03
74778;BME280;63298;53.164;8.610;2023-11-18T08:19:01;102535.81;;;5.11;82.34
74778;BME280;63298;53.164;8.610;2023-11-18T08:21:27;102528.94;;;5.07;82.71
74778;BME280;63298;53.164;8.610;2023-11-18T08:23:52;102530.00;;;5.14;82.32
74778;BME280;63298;53.164;8.610;2023-11-18T08:26:20;102524.25;;;5.17;82.79
74778;BME280;63298;53.164;8.610;2023-11-18T08:28:45;102510.88;;;5.14;82.89
74778;BME280;63298;53.164;8.610;2023-11-18T08:31:13;102518.44;;;5.20;82.92
74778;BME280;63298;53.164;8.610;2023-11-18T08:33:38;102536.63;;;5.29;82.19
74778;BME280;63298;53.164;8.610;2023-11-18T08:36:04;102520.00;;;5.22;82.35
74778;BME280;63298;53.164;8.610;2023-11-18T08:38:29;102502.50;;;5.15;82.10
74778;BME280;63298;53.164;8.610;2023-11-18T08:40:55;102528.25;;;5.31;81.87
74778;BME280;63298;53.164;8.610;2023-11-18T08:43:20;102523.56;;;5.23;83.13
74778;BME280;63298;53.164;8.610;2023-11-18T08:45:46;102519.53;;;5.27;82.24
74778;BME280;63298;53.164;8.610;2023-11-18T08:48:11;102506.16;;;5.24;82.24
74778;BME280;63298;53.164;8.610;2023-11-18T08:50:37;102510.59;;;5.25;82.32
74778;BME280;63298;53.164;8.610;2023-11-18T08:53:03;102504.28;;;5.25;82.57
74778;BME280;63298;53.164;8.610;2023-11-18T08:55:29;102500.31;;;5.19;82.71
74778;BME280;63298;53.164;8.610;2023-11-18T08:57:55;102499.03;;;5.31;82.15
74778;BME280;63298;53.164;8.610;2023-11-18T09:00:20;102476.63;;;5.28;82.56
74778;BME280;63298;53.164;8.610;2023-11-18T09:02:46;102490.84;;;5.39;82.61
74778;BME280;63298;53.164;8.610;2023-11-18T09:05:11;102488.19;;;5.47;83.29
74778;BME280;63298;53.164;8.610;2023-11-18T09:07:37;102471.88;;;5.38;82.72
74778;BME280;63298;53.164;8.610;2023-11-18T09:10:02;102473.41;;;5.40;82.83
74778;BME280;63298;53.164;8.610;2023-11-18T09:12:28;102487.31;;;5.47;82.33
74778;BME280;63298;53.164;8.610;2023-11-18T09:14:53;102502.41;;;5.59;82.15
74778;BME280;63298;53.164;8.610;2023-11-18T09:17:19;102475.81;;;5.43;82.21
74778;BME280;63298;53.164;8.610;2023-11-18T09:19:44;102500.38;;;5.61;82.69
74778;BME280;63298;53.164;8.610;2023-11-18T09:22:13;102482.53;;;5.49;82.53
74778;BME280;63298;53.164;8.610;2023-11-18T09:24:38;102487.38;;;5.63;82.95
74778;BME280;63298;53.164;8.610;2023-11-18T09:27:04;102475.47;;;5.72;82.29
74778;BME280;63298;53.164;8.610;2023-11-18T09:29:29;102476.50;;;5.79;82.59
74778;BME280;63298;53.164;8.610;2023-11-18T09:31:54;102471.53;;;5.75;82.19
74778;BME280;63298;53.164;8.610;2023-11-18T09:34:20;102468.44;;;5.78;82.68
74778;BME280;63298;53.164;8.610;2023-11-18T09:36:45;102490.78;;;5.91;82.60
74778;BME280;63298;53.164;8.610;2023-11-18T09:39:11;102483.59;;;5.90;82.63
74778;BME280;63298;53.164;8.610;2023-11-18T09:41:36;102466.06;;;5.83;82.13
74778;BME280;63298;53.164;8.610;2023-11-18T09:44:01;102452.56;;;5.81;82.76
74778;BME280;63298;53.164;8.610;2023-11-18T09:46:27;102460.97;;;5.88;82.70
74778;BME280;63298;53.164;8.610;2023-11-18T09:49:11;102456.81;;;5.84;82.49
74778;BME280;63298;53.164;8.610;2023-11-18T09:51:38;102463.75;;;5.96;82.07
74778;BME280;63298;53.164;8.610;2023-11-18T09:54:34;102442.28;;;5.83;82.80
74778;BME280;63298;53.164;8.610;2023-11-18T09:59:55;102443.22;;;6.00;81.86
74778;BME280;63298;53.164;8.610;2023-11-18T10:02:24;102431.56;;;5.98;81.88
74778;BME280;63298;53.164;8.610;2023-11-18T10:04:50;102429.19;;;6.03;82.09
74778;BME280;63298;53.164;8.610;2023-11-18T10:07:17;102425.41;;;5.96;82.34
74778;BME280;63298;53.164;8.610;2023-11-18T10:09:47;102426.09;;;5.98;82.35
74778;BME280;63298;53.164;8.610;2023-11-18T10:12:13;102418.22;;;5.95;81.97
74778;BME280;63298;53.164;8.610;2023-11-18T10:14:41;102409.66;;;5.98;82.67
74778;BME280;63298;53.164;8.610;2023-11-18T10:17:07;102399.56;;;5.98;82.34
74778;BME280;63298;53.164;8.610;2023-11-18T10:19:56;102407.78;;;5.98;82.38
74778;BME280;63298;53.164;8.610;2023-11-18T10:22:28;102391.19;;;5.92;82.63
74778;BME280;63298;53.164;8.610;2023-11-18T10:24:57;102406.91;;;5.98;82.03
74778;BME280;63298;53.164;8.610;2023-11-18T10:27:27;102406.06;;;5.97;82.49
74778;BME280;63298;53.164;8.610;2023-11-18T10:29:57;102389.97;;;5.94;81.74
74778;BME280;63298;53.164;8.610;2023-11-18T10:32:22;102392.19;;;5.99;82.41
74778;BME280;63298;53.164;8.610;2023-11-18T10:34:48;102413.78;;;6.10;81.82
74778;BME280;63298;53.164;8.610;2023-11-18T10:37:14;102389.13;;;6.02;82.36
74778;BME280;63298;53.164;8.610;2023-11-18T10:39:39;102395.63;;;6.17;81.80
74778;BME280;63298;53.164;8.610;2023-11-18T10:42:04;102378.84;;;6.12;81.59
74778;BME280;63298;53.164;8.610;2023-11-18T10:44:30;102391.38;;;6.23;81.77
74778;BME280;63298;53.164;8.610;2023-11-18T10:46:56;102389.81;;;6.28;81.57
74778;BME280;63298;53.164;8.610;2023-11-18T10:49:22;102366.69;;;6.23;82.04
74778;BME280;63298;53.164;8.610;2023-11-18T11:56:18;102247.09;;;6.54;80.78
74778;BME280;63298;53.164;8.610;2023-11-18T11:58:44;102237.16;;;6.53;81.05
74778;BME280;63298;53.164;8.610;2023-11-18T12:34:52;102254.16;;;6.87;80.80
74778;BME280;63298;53.164;8.610;2023-11-18T12:37:53;102265.00;;;6.81;81.10
74778;BME280;63298;53.164;8.610;2023-11-18T12:47:29;102254.66;;;6.91;81.09
74778;BME280;63298;53.164;8.610;2023-11-18T22:27:01;101019.69;;;6.97;87.16
74778;BME280;63298;53.164;8.610;2023-11-18T22:29:27;100990.59;;;6.89;86.81
74778;BME280;63298;53.164;8.610;2023-11-18T22:31:52;100993.75;;;6.93;87.48
74778;BME280;63298;53.164;8.610;2023-11-18T22:34:18;101006.81;;;6.91;87.07
74778;BME280;63298;53.164;8.610;2023-11-18T22:36:43;101011.88;;;7.07;86.84
74778;BME280;63298;53.164;8.610;2023-11-18T22:39:08;100988.47;;;6.98;87.03
74778;BME280;63298;53.164;8.610;2023-11-18T22:41:34;100989.53;;;7.04;86.82
74778;BME280;63298;53.164;8.610;2023-11-18T22:43:59;101000.09;;;7.13;87.30
74778;BME280;63298;53.164;8.610;2023-11-18T22:46:25;100985.09;;;7.09;86.83
74778;BME280;63298;53.164;8.610;2023-11-18T22:48:50;100988.47;;;7.11;86.54
74778;BME280;63298;53.164;8.610;2023-11-18T22:51:15;101000.09;;;7.20;87.30
74778;BME280;63298;53.164;8.610;2023-11-18T22:53:41;100981.31;;;7.10;86.87
74778;BME280;63298;53.164;8.610;2023-11-18T22:56:06;100982.78;;;7.19;87.31
74778;BME280;63298;53.164;8.610;2023-11-18T22:58:32;100983.19;;;7.23;86.46
74778;BME280;63298;53.164;8.610;2023-11-18T23:00:57;100966.94;;;7.21;86.60
74778;BME280;63298;53.164;8.610;2023-11-18T23:03:23;100954.28;;;7.20;87.02
74778;BME280;63298;53.164;8.610;2023-11-18T23:05:48;100970.94;;;7.32;86.45
74778;BME280;63298;53.164;8.610;2023-11-18T23:08:14;100972.84;;;7.31;86.62
74778;BME280;63298;53.164;8.610;2023-11-18T23:10:39;100957.88;;;7.34;86.32
74778;BME280;63298;53.164;8.610;2023-11-18T23:13:05;100950.03;;;7.31;87.19
74778;BME280;63298;53.164;8.610;2023-11-18T23:15:34;100967.97;;;7.47;86.37
74778;BME280;63298;53.164;8.610;2023-11-18T23:17:59;100947.50;;;7.43;86.36
74778;BME280;63298;53.164;8.610;2023-11-18T23:20:25;100958.03;;;7.46;86.25
74778;BME280;63298;53.164;8.610;2023-11-18T23:22:50;100949.16;;;7.50;86.67
74778;BME280;63298;53.164;8.610;2023-11-18T23:25:16;100940.53;;;7.47;86.73
74778;BME280;63298;53.164;8.610;2023-11-18T23:27:41;100928.06;;;7.51;86.65
74778;BME280;63298;53.164;8.610;2023-11-18T23:30:07;100913.28;;;7.45;86.66
74778;BME280;63298;53.164;8.610;2023-11-18T23:32:32;100911.59;;;7.51;87.03
74778;BME280;63298;53.164;8.610;2023-11-18T23:34:58;100897.88;;;7.51;86.78
74778;BME280;63298;53.164;8.610;2023-11-18T23:37:23;100901.00;;;7.61;86.44
74778;BME280;63298;53.164;8.610;2023-11-18T23:39:49;100899.75;;;7.57;86.74
74778;BME280;63298;53.164;8.610;2023-11-18T23:42:14;100889.81;;;7.62;86.68
74778;BME280;63298;53.164;8.610;2023-11-18T23:44:42;100887.47;;;7.66;86.37
74778;BME280;63298;53.164;8.610;2023-11-18T23:47:07;100874.38;;;7.61;87.03
74778;BME280;63298;53.164;8.610;2023-11-18T23:49:35;100876.91;;;7.69;86.58
74778;BME280;63298;53.164;8.610;2023-11-18T23:52:01;100862.34;;;7.62;86.90
74778;BME280;63298;53.164;8.610;2023-11-18T23:54:26;100854.53;;;7.66;87.13
74778;BME280;63298;53.164;8.610;2023-11-18T23:56:51;100859.78;;;7.74;86.96
74778;BME280;63298;53.164;8.610;2023-11-18T23:59:17;100853.47;;;7.67;87.06
